createdAt,value
2023-05-21T00:01:16.626Z,96013.28
2023-05-21T00:03:46.085Z,96006.31
2023-05-21T00:06:15.685Z,95999.88
2023-05-21T00:08:43.953Z,96002.56
2023-05-21T00:11:11.690Z,96007.63
2023-05-21T00:13:40.024Z,96000.94
2023-05-21T00:16:08.632Z,96002.00
2023-05-21T00:18:39.394Z,96000.97
2023-05-21T00:21:07.647Z,95994.25
2023-05-21T00:23:37.718Z,95983.50
2023-05-21T00:26:05.569Z,95986.97
2023-05-21T00:28:33.433Z,95983.22
2023-05-21T00:31:01.452Z,95985.88
2023-05-21T00:33:29.349Z,95989.91
2023-05-21T00:35:58.565Z,95972.97
2023-05-21T00:38:27.983Z,95987.44
2023-05-21T00:40:55.776Z,95975.59
2023-05-21T00:43:26.713Z,95979.84
2023-05-21T00:45:56.575Z,95975.03
2023-05-21T00:48:24.996Z,95979.09
2023-05-21T00:50:53.902Z,95989.25
2023-05-21T00:53:23.098Z,95975.09
2023-05-21T00:55:52.316Z,95982.56
2023-05-21T00:58:20.356Z,95980.94
2023-05-21T01:00:48.214Z,95981.69
2023-05-21T01:03:16.475Z,95979.91
2023-05-21T01:05:45.090Z,95985.00
2023-05-21T01:08:13.462Z,95983.09
2023-05-21T01:10:42.829Z,95985.22
2023-05-21T01:13:11.172Z,95990.03
2023-05-21T01:15:39.317Z,95976.59
2023-05-21T01:18:07.682Z,95982.00
2023-05-21T01:20:36.253Z,95983.63
2023-05-21T01:23:06.782Z,95990.63
2023-05-21T01:25:35.228Z,95960.06
2023-05-21T01:28:03.211Z,95973.09
2023-05-21T01:30:31.415Z,95973.09
2023-05-21T01:33:04.068Z,95969.94
2023-05-21T01:35:35.451Z,95955.69
2023-05-21T01:38:13.316Z,95959.72
2023-05-21T01:40:45.740Z,95971.56
2023-05-21T01:43:15.408Z,95963.50
2023-05-21T01:45:47.113Z,95960.25
2023-05-21T01:48:17.455Z,95962.81
2023-05-21T01:50:46.244Z,95963.94
2023-05-21T01:53:17.324Z,95963.28
2023-05-21T01:55:46.015Z,95957.63
2023-05-21T01:58:13.919Z,95939.63
2023-05-21T02:00:41.726Z,95949.69
2023-05-21T02:03:09.790Z,95949.19
2023-05-21T02:05:37.919Z,95943.00
2023-05-21T02:08:08.465Z,95950.56
2023-05-21T02:10:38.153Z,95944.09
2023-05-21T02:13:06.351Z,95931.94
2023-05-21T02:15:35.271Z,95945.53
2023-05-21T02:18:04.465Z,95945.22
2023-05-21T02:20:33.217Z,95953.25
2023-05-21T02:23:01.176Z,95955.09
2023-05-21T02:25:29.142Z,95941.66
2023-05-21T02:27:58.686Z,95945.63
2023-05-21T02:30:26.469Z,95936.19
2023-05-21T02:32:54.890Z,95939.50
2023-05-21T02:35:23.086Z,95937.53
2023-05-21T02:37:50.998Z,95937.44
2023-05-21T02:40:18.788Z,95939.47
2023-05-21T02:42:46.589Z,95940.25
2023-05-21T02:45:16.274Z,95944.81
2023-05-21T02:47:44.181Z,95941.56
2023-05-21T02:50:12.161Z,95946.34
2023-05-21T02:52:40.242Z,95939.19
2023-05-21T02:55:09.187Z,95938.19
2023-05-21T02:57:36.953Z,95945.44
2023-05-21T03:00:06.272Z,95936.94
2023-05-21T03:02:35.924Z,95940.88
2023-05-21T03:05:03.768Z,95936.47
2023-05-21T03:07:31.639Z,95949.94
2023-05-21T03:09:59.399Z,95953.19
2023-05-21T03:12:27.278Z,95952.34
2023-05-21T03:14:56.408Z,95949.97
2023-05-21T03:17:24.473Z,95926.78
2023-05-21T03:19:55.045Z,95955.28
2023-05-21T03:22:22.829Z,95944.84
2023-05-21T03:24:51.047Z,95949.94
2023-05-21T03:27:18.819Z,95947.50
2023-05-21T03:29:46.596Z,95958.47
2023-05-21T03:32:14.925Z,95950.88
2023-05-21T03:34:42.812Z,95960.84
2023-05-21T03:37:11.925Z,95959.47
2023-05-21T03:39:40.056Z,95956.78
2023-05-21T03:42:07.877Z,95953.28
2023-05-21T03:44:35.625Z,95961.03
2023-05-21T03:47:03.418Z,95962.59
2023-05-21T03:49:31.304Z,95956.13
2023-05-21T03:51:59.125Z,95959.59
2023-05-21T03:54:28.433Z,95978.13
2023-05-21T03:56:56.275Z,95975.44
2023-05-21T03:59:24.017Z,95979.19
2023-05-21T04:01:51.903Z,95977.56
2023-05-21T04:04:19.739Z,95988.84
2023-05-21T04:06:48.687Z,95990.97
2023-05-21T04:09:16.693Z,95992.09
2023-05-21T04:11:46.838Z,95990.50
2023-05-21T04:14:14.713Z,95989.94
2023-05-21T04:16:44.093Z,95986.69
2023-05-21T04:19:12.039Z,95988.63
2023-05-21T04:21:40.372Z,95990.28
2023-05-21T04:24:08.233Z,95995.09
2023-05-21T04:26:36.313Z,95990.03
2023-05-21T04:29:05.514Z,95996.22
2023-05-21T04:31:33.483Z,95998.72
2023-05-21T04:34:01.939Z,96002.72
2023-05-21T04:36:30.250Z,96005.94
2023-05-21T04:38:58.178Z,96004.50
2023-05-21T04:41:25.969Z,96000.13
2023-05-21T04:43:55.304Z,95996.63
2023-05-21T04:46:25.844Z,95991.34
2023-05-21T04:48:55.099Z,95993.50
2023-05-21T04:51:24.658Z,95991.88
2023-05-21T04:53:54.049Z,95997.25
2023-05-21T04:56:22.786Z,95976.56
2023-05-21T04:58:50.797Z,95993.09
2023-05-21T05:01:19.323Z,95996.97
2023-05-21T05:03:48.871Z,96008.94
2023-05-21T05:06:16.845Z,96006.25
2023-05-21T05:08:45.218Z,96008.72
2023-05-21T05:11:13.580Z,95995.56
2023-05-21T05:13:43.093Z,95991.81
2023-05-21T05:16:13.002Z,95993.34
2023-05-21T05:18:40.980Z,95986.34
2023-05-21T05:21:10.235Z,96004.34
2023-05-21T05:23:38.171Z,96013.50
2023-05-21T05:26:06.019Z,96015.13
2023-05-21T05:28:34.109Z,96001.94
2023-05-21T05:31:02.071Z,96005.97
2023-05-21T05:33:29.879Z,96004.63
2023-05-21T05:35:57.637Z,96006.00
2023-05-21T05:38:27.088Z,96008.66
2023-05-21T05:40:55.201Z,96002.75
2023-05-21T05:43:23.042Z,95999.03
2023-05-21T05:45:51.348Z,95995.78
2023-05-21T05:48:19.258Z,96006.53
2023-05-21T05:50:47.063Z,96007.31
2023-05-21T05:53:15.102Z,95998.97
2023-05-21T05:55:44.465Z,95998.94
2023-05-21T05:58:12.224Z,96000.84
2023-05-21T06:00:40.284Z,96005.44
2023-05-21T06:03:08.224Z,96005.41
2023-05-21T06:05:36.389Z,96009.75
2023-05-21T06:08:04.500Z,95985.25
2023-05-21T06:10:32.286Z,95995.69
2023-05-21T06:13:01.505Z,96007.81
2023-05-21T06:15:29.700Z,96021.59
2023-05-21T06:17:57.552Z,96014.03
2023-05-21T06:20:25.300Z,96006.44
2023-05-21T06:22:53.181Z,95999.06
2023-05-21T06:25:21.437Z,96006.00
2023-05-21T06:27:49.226Z,96007.91
2023-05-21T06:30:18.487Z,96013.31
2023-05-21T06:32:46.418Z,96016.88
2023-05-21T06:35:14.633Z,96014.53
2023-05-21T06:37:43.074Z,96009.94
2023-05-21T06:40:11.399Z,96015.25
2023-05-21T06:42:39.159Z,95995.00
2023-05-21T06:45:08.101Z,96006.84
2023-05-21T06:47:37.469Z,96004.09
2023-05-21T06:50:06.434Z,96005.78
2023-05-21T06:52:34.225Z,96009.53
2023-05-21T06:55:02.056Z,96013.16
2023-05-21T06:57:30.136Z,96000.72
2023-05-21T06:59:57.906Z,96002.72
2023-05-21T07:02:26.253Z,96013.56
2023-05-21T07:04:55.695Z,96007.16
2023-05-21T07:07:23.877Z,96004.84
2023-05-21T07:09:51.706Z,96010.75
2023-05-21T07:12:19.466Z,96005.44
2023-05-21T07:14:47.669Z,96010.22
2023-05-21T07:17:15.481Z,96014.78
2023-05-21T07:19:43.558Z,96005.19
2023-05-21T07:22:12.898Z,96009.56
2023-05-21T07:24:40.661Z,96006.56
2023-05-21T07:27:17.691Z,96008.75
2023-05-21T07:29:52.327Z,96006.34
2023-05-21T07:32:20.185Z,96002.06
2023-05-21T07:34:48.119Z,96002.69
2023-05-21T07:37:17.319Z,95999.31
2023-05-21T07:39:45.073Z,95990.22
2023-05-21T07:42:12.886Z,95985.16
2023-05-21T07:44:41.146Z,95996.41
2023-05-21T07:47:08.944Z,95995.38
2023-05-21T07:49:36.679Z,95988.53
2023-05-21T07:52:05.125Z,95982.84
2023-05-21T07:54:34.629Z,95974.38
2023-05-21T07:57:02.910Z,95985.47
2023-05-21T07:59:31.211Z,95989.56
2023-05-21T08:01:59.993Z,95988.50
2023-05-21T08:04:28.142Z,95982.25
2023-05-21T08:06:56.550Z,95981.44
2023-05-21T08:09:24.538Z,95990.91
2023-05-21T08:11:53.677Z,95986.41
2023-05-21T08:14:21.690Z,95990.56
2023-05-21T08:16:49.940Z,95991.84
2023-05-21T08:19:17.885Z,95982.38
2023-05-21T08:21:46.188Z,95985.38
2023-05-21T08:24:14.073Z,95977.25
2023-05-21T08:26:42.338Z,95975.09
2023-05-21T08:29:11.512Z,95978.50
2023-05-21T08:31:40.357Z,95983.22
2023-05-21T08:34:08.174Z,95981.97
2023-05-21T08:36:36.120Z,95985.72
2023-05-21T08:39:04.095Z,95981.66
2023-05-21T08:41:36.227Z,95966.06
2023-05-21T08:44:04.360Z,95982.41
2023-05-21T08:46:35.188Z,95975.34
2023-05-21T08:49:04.334Z,95975.59
2023-05-21T08:51:32.463Z,95982.63
2023-05-21T08:54:02.776Z,95973.59
2023-05-21T08:56:32.900Z,95976.56
2023-05-21T08:59:01.035Z,95966.56
2023-05-21T09:01:29.547Z,95965.88
2023-05-21T09:04:08.269Z,95970.13
2023-05-21T09:06:47.995Z,95980.50
2023-05-21T09:09:23.416Z,95982.19
2023-05-21T09:11:51.340Z,95982.38
2023-05-21T09:14:20.448Z,95982.81
2023-05-21T09:16:49.630Z,95982.59
2023-05-21T09:19:22.018Z,95979.59
2023-05-21T09:21:52.822Z,95982.00
2023-05-21T09:24:23.864Z,95976.72
2023-05-21T09:26:52.478Z,95974.75
2023-05-21T09:29:20.379Z,95965.50
2023-05-21T09:31:51.067Z,95971.63
2023-05-21T09:34:20.966Z,95956.81
2023-05-21T09:36:50.145Z,95978.50
2023-05-21T09:39:29.217Z,95970.84
2023-05-21T09:42:00.868Z,95963.13
2023-05-21T09:44:28.894Z,95967.91
2023-05-21T09:46:59.200Z,95964.88
2023-05-21T09:49:28.568Z,95962.59
2023-05-21T09:51:57.231Z,95971.13
2023-05-21T09:54:25.975Z,95974.47
2023-05-21T09:56:53.967Z,95985.03
2023-05-21T09:59:22.275Z,95986.56
2023-05-21T10:01:53.105Z,95978.28
2023-05-21T10:04:21.242Z,95978.97
2023-05-21T10:06:52.506Z,95980.09
2023-05-21T10:09:21.264Z,95977.47
2023-05-21T10:11:50.914Z,95976.13
2023-05-21T10:14:22.502Z,95978.34
2023-05-21T10:16:51.213Z,95967.53
2023-05-21T10:19:20.675Z,95964.66
2023-05-21T10:21:52.567Z,95968.16
2023-05-21T10:24:21.456Z,95968.28
2023-05-21T10:26:50.089Z,95968.19
2023-05-21T10:29:19.950Z,95957.97
2023-05-21T10:31:49.876Z,95957.19
2023-05-21T10:34:18.741Z,95949.94
2023-05-21T10:36:49.997Z,95954.94
2023-05-21T10:39:21.726Z,95949.97
2023-05-21T10:41:59.214Z,95951.91
2023-05-21T10:44:40.207Z,95960.47
2023-05-21T10:47:35.364Z,95955.88
2023-05-21T10:50:27.986Z,95948.28
2023-05-21T10:53:05.701Z,95953.41
2023-05-21T10:55:47.630Z,95946.94
2023-05-21T10:58:49.798Z,95949.66
2023-05-21T11:01:19.438Z,95949.53
2023-05-21T11:03:48.905Z,95944.25
2023-05-21T11:06:25.547Z,95942.38
2023-05-21T11:08:55.569Z,95938.25
2023-05-21T11:11:46.072Z,95935.25
2023-05-21T11:14:36.176Z,95941.84
2023-05-21T11:17:05.424Z,95936.75
2023-05-21T11:19:42.259Z,95937.88
2023-05-21T11:22:21.361Z,95935.06
2023-05-21T11:24:51.155Z,95923.44
2023-05-21T11:27:34.519Z,95930.22
2023-05-21T11:30:06.592Z,95927.94
2023-05-21T11:32:38.386Z,95925.25
2023-05-21T11:35:07.256Z,95927.47
2023-05-21T11:37:35.977Z,95927.47
2023-05-21T11:40:26.144Z,95920.03
2023-05-21T11:42:56.894Z,95917.50
2023-05-21T11:45:29.024Z,95914.06
2023-05-21T11:47:57.298Z,95917.50
2023-05-21T11:50:25.312Z,95910.28
2023-05-21T11:52:53.609Z,95921.91
2023-05-21T11:55:25.880Z,95915.88
2023-05-21T11:57:56.535Z,95911.75
2023-05-21T12:00:24.400Z,95912.78
2023-05-21T12:02:54.256Z,95908.44
2023-05-21T12:05:23.303Z,95916.09
2023-05-21T12:07:51.355Z,95922.25
2023-05-21T12:10:22.830Z,95924.31
2023-05-21T12:12:56.361Z,95916.03
2023-05-21T12:15:28.027Z,95914.34
2023-05-21T12:17:57.171Z,95915.69
2023-05-21T12:20:28.190Z,95920.44
2023-05-21T12:22:58.104Z,95915.59
2023-05-21T12:25:26.190Z,95915.03
2023-05-21T12:27:58.026Z,95916.91
2023-05-21T12:30:27.882Z,95922.31
2023-05-21T12:32:59.074Z,95913.22
2023-05-21T12:35:26.778Z,95914.94
2023-05-21T12:37:54.609Z,95913.94
2023-05-21T12:40:22.635Z,95914.16
2023-05-21T12:42:51.659Z,95913.03
2023-05-21T12:45:21.110Z,95919.13
2023-05-21T12:47:56.071Z,95912.84
2023-05-21T12:50:24.480Z,95909.63
2023-05-21T12:52:55.984Z,95907.16
2023-05-21T12:55:25.344Z,95904.94
2023-05-21T12:58:02.420Z,95921.63
2023-05-21T13:00:30.245Z,95915.81
2023-05-21T13:03:00.898Z,95915.28
2023-05-21T13:05:28.785Z,95916.78
2023-05-21T13:07:56.572Z,95915.44
2023-05-21T13:10:24.716Z,95916.81
2023-05-21T13:12:52.519Z,95916.84
2023-05-21T13:15:20.500Z,95912.44
2023-05-21T13:17:50.073Z,95915.78
2023-05-21T13:20:34.510Z,95918.13
2023-05-21T13:23:05.845Z,95914.00
2023-05-21T13:25:34.572Z,95916.59
2023-05-21T13:28:04.493Z,95915.78
2023-05-21T13:30:33.276Z,95903.47
2023-05-21T13:33:01.902Z,95910.56
2023-05-21T13:35:32.529Z,95912.97
2023-05-21T13:38:00.293Z,95915.13
2023-05-21T13:40:28.066Z,95908.06
2023-05-21T13:42:55.850Z,95914.50
2023-05-21T13:45:28.920Z,95920.75
2023-05-21T13:47:57.210Z,95914.97
2023-05-21T13:50:25.955Z,95904.78
2023-05-21T13:52:55.088Z,95923.38
2023-05-21T13:55:22.933Z,95920.34
2023-05-21T13:57:50.728Z,95914.59
2023-05-21T14:00:18.539Z,95919.44
2023-05-21T14:02:46.383Z,95917.22
2023-05-21T14:05:14.903Z,95919.53
2023-05-21T14:07:43.054Z,95914.44
2023-05-21T14:10:13.712Z,95912.22
2023-05-21T14:12:42.167Z,95920.19
2023-05-21T14:15:10.656Z,95907.94
2023-05-21T14:17:40.718Z,95912.06
2023-05-21T14:20:10.363Z,95897.38
2023-05-21T14:22:38.878Z,95893.06
2023-05-21T14:25:07.525Z,95900.16
2023-05-21T14:27:38.333Z,95895.00
2023-05-21T14:30:07.206Z,95895.88
2023-05-21T14:32:34.999Z,95900.34
2023-05-21T14:35:02.884Z,95888.59
2023-05-21T14:37:31.673Z,95893.13
2023-05-21T14:39:59.521Z,95887.63
2023-05-21T14:42:27.243Z,95885.50
2023-05-21T14:44:56.343Z,95889.09
2023-05-21T14:47:24.131Z,95881.88
2023-05-21T14:49:52.302Z,95884.22
2023-05-21T14:52:20.090Z,95886.09
2023-05-21T14:54:48.258Z,95885.19
2023-05-21T14:57:16.099Z,95885.69
2023-05-21T14:59:44.194Z,95886.44
2023-05-21T15:02:13.840Z,95887.00
2023-05-21T15:04:42.005Z,95887.63
2023-05-21T15:07:10.857Z,95874.03
2023-05-21T15:09:38.689Z,95894.84
2023-05-21T15:12:06.832Z,95892.38
2023-05-21T15:14:34.671Z,95891.00
2023-05-21T15:17:02.489Z,95890.66
2023-05-21T15:19:31.676Z,95874.19
2023-05-21T15:21:59.585Z,95891.03
2023-05-21T15:24:27.407Z,95893.66
2023-05-21T15:26:55.221Z,95891.22
2023-05-21T15:29:23.021Z,95896.78
2023-05-21T15:31:51.107Z,95894.72
2023-05-21T15:34:18.893Z,95894.41
2023-05-21T15:36:48.009Z,95888.63
2023-05-21T15:39:15.999Z,95896.13
2023-05-21T15:41:43.823Z,95888.97
2023-05-21T15:44:11.597Z,95892.19
2023-05-21T15:46:39.413Z,95893.50
2023-05-21T15:49:07.229Z,95884.44
2023-05-21T15:51:35.025Z,95877.09
2023-05-21T15:54:04.353Z,95885.31
2023-05-21T15:56:32.093Z,95892.13
2023-05-21T15:59:01.515Z,95889.94
2023-05-21T16:01:30.157Z,95886.63
2023-05-21T16:03:57.944Z,95882.31
2023-05-21T16:06:25.816Z,95892.63
2023-05-21T16:08:53.935Z,95876.72
2023-05-21T16:11:23.696Z,95882.84
2023-05-21T16:13:51.551Z,95879.03
2023-05-21T16:16:20.176Z,95878.75
2023-05-21T16:18:49.270Z,95889.00
2023-05-21T16:21:17.362Z,95888.44
2023-05-21T16:23:45.487Z,95886.72
2023-05-21T16:26:13.924Z,95879.66
2023-05-21T16:28:43.209Z,95879.91
2023-05-21T16:31:12.734Z,95889.22
2023-05-21T16:33:40.537Z,95888.84
2023-05-21T16:36:08.525Z,95892.59
2023-05-21T16:38:36.397Z,95894.22
2023-05-21T16:41:04.292Z,95894.06
2023-05-21T16:43:32.001Z,95896.59
2023-05-21T16:46:01.332Z,95902.31
2023-05-21T16:48:29.221Z,95896.97
2023-05-21T16:50:56.985Z,95895.66
2023-05-21T16:53:24.766Z,95891.00
2023-05-21T16:55:52.829Z,95892.06
2023-05-21T16:58:20.580Z,95890.25
2023-05-21T17:00:49.291Z,95898.50
2023-05-21T17:03:18.727Z,95899.81
2023-05-21T17:05:46.823Z,95907.78
2023-05-21T17:08:15.033Z,95896.06
2023-05-21T17:10:42.861Z,95898.34
2023-05-21T17:13:21.657Z,95889.84
2023-05-21T17:15:50.839Z,95900.13
2023-05-21T17:18:20.539Z,95905.53
2023-05-21T17:20:48.418Z,95904.06
2023-05-21T17:23:16.661Z,95906.94
2023-05-21T17:25:44.600Z,95898.13
2023-05-21T17:28:12.464Z,95911.19
2023-05-21T17:30:40.430Z,95909.00
2023-05-21T17:33:10.365Z,95907.25
2023-05-21T17:35:39.828Z,95912.63
2023-05-21T17:38:08.139Z,95904.56
2023-05-21T17:40:36.162Z,95917.75
2023-05-21T17:43:04.295Z,95911.84
2023-05-21T17:45:32.216Z,95912.53
2023-05-21T17:48:00.796Z,95913.13
2023-05-21T17:50:29.126Z,95917.59
2023-05-21T17:52:58.256Z,95915.34
2023-05-21T17:55:26.041Z,95921.22
2023-05-21T17:57:53.814Z,95916.97
2023-05-21T18:00:22.205Z,95917.47
2023-05-21T18:02:50.159Z,95916.50
2023-05-21T18:05:17.952Z,95917.69
2023-05-21T18:07:45.709Z,95916.84
2023-05-21T18:10:15.554Z,95915.97
2023-05-21T18:12:43.808Z,95908.19
2023-05-21T18:15:12.322Z,95917.81
2023-05-21T18:17:40.129Z,95917.22
2023-05-21T18:20:09.476Z,95914.81
2023-05-21T18:22:37.727Z,95918.31
2023-05-21T18:25:06.606Z,95916.44
2023-05-21T18:27:35.894Z,95908.34
2023-05-21T18:30:06.318Z,95916.91
2023-05-21T18:32:34.658Z,95917.31
2023-05-21T18:35:02.452Z,95906.56
2023-05-21T18:37:30.233Z,95913.09
2023-05-21T18:39:57.970Z,95904.38
2023-05-21T18:42:28.209Z,95914.75
2023-05-21T18:44:57.792Z,95919.06
2023-05-21T18:47:25.598Z,95921.19
2023-05-21T18:49:53.574Z,95922.78
2023-05-21T18:52:21.332Z,95927.78
2023-05-21T18:54:49.146Z,95926.28
2023-05-21T18:57:16.927Z,95934.31
2023-05-21T18:59:44.914Z,95943.56
2023-05-21T19:02:14.290Z,95944.00
2023-05-21T19:04:44.024Z,95937.44
2023-05-21T19:07:12.016Z,95941.19
2023-05-21T19:09:39.780Z,95945.00
2023-05-21T19:12:08.289Z,95947.81
2023-05-21T19:14:36.097Z,95955.25
2023-05-21T19:17:03.849Z,95951.03
2023-05-21T19:19:33.100Z,95955.34
2023-05-21T19:22:00.986Z,95964.44
2023-05-21T19:24:28.745Z,95974.88
2023-05-21T19:26:56.583Z,95961.22
2023-05-21T19:29:24.361Z,95981.66
2023-05-21T19:31:54.985Z,95983.44
2023-05-21T19:34:23.135Z,95979.34
2023-05-21T19:36:53.682Z,95982.13
2023-05-21T19:39:22.010Z,95989.75
2023-05-21T19:41:49.953Z,95997.66
2023-05-21T19:44:18.227Z,95997.66
2023-05-21T19:46:46.046Z,95999.41
2023-05-21T19:49:15.806Z,95998.91
2023-05-21T19:51:43.951Z,96012.22
2023-05-21T19:54:13.528Z,96014.41
2023-05-21T19:56:41.524Z,96012.81
2023-05-21T19:59:09.322Z,96022.63
2023-05-21T20:01:39.779Z,96023.03
2023-05-21T20:04:09.314Z,96017.63
2023-05-21T20:06:37.421Z,96023.88
2023-05-21T20:09:05.509Z,96025.75
2023-05-21T20:11:36.084Z,96029.56
2023-05-21T20:14:04.476Z,96031.50
2023-05-21T20:16:33.377Z,96029.84
2023-05-21T20:19:01.854Z,96025.66
2023-05-21T20:21:31.542Z,96031.34
2023-05-21T20:23:59.339Z,96034.94
2023-05-21T20:26:27.239Z,96032.72
2023-05-21T20:28:56.383Z,96038.19
2023-05-21T20:31:25.403Z,96034.38
2023-05-21T20:33:53.781Z,96041.31
2023-05-21T20:36:21.932Z,96036.53
2023-05-21T20:38:49.715Z,96023.94
2023-05-21T20:41:17.557Z,96032.94
2023-05-21T20:43:46.021Z,96023.25
2023-05-21T20:46:18.701Z,96042.25
2023-05-21T20:48:47.283Z,96036.84
2023-05-21T20:51:15.541Z,96033.59
2023-05-21T20:53:43.703Z,96036.31
2023-05-21T20:56:15.282Z,96035.84
2023-05-21T20:58:44.175Z,96030.44
2023-05-21T21:01:14.497Z,96034.59
2023-05-21T21:03:45.656Z,96031.88
2023-05-21T21:06:13.843Z,96041.38
2023-05-21T21:08:46.086Z,96042.47
2023-05-21T21:11:14.258Z,96036.13
2023-05-21T21:13:42.176Z,96045.06
2023-05-21T21:16:10.126Z,96045.13
2023-05-21T21:18:38.061Z,96041.63
2023-05-21T21:21:07.504Z,96038.78
2023-05-21T21:23:35.311Z,96046.34
2023-05-21T21:26:03.081Z,96046.31
2023-05-21T21:28:31.095Z,96041.69
2023-05-21T21:30:59.068Z,96037.38
2023-05-21T21:33:27.287Z,96048.47
2023-05-21T21:35:55.213Z,96048.19
2023-05-21T21:38:24.363Z,96046.25
2023-05-21T21:40:52.285Z,96044.88
2023-05-21T21:43:20.454Z,96056.88
2023-05-21T21:45:48.205Z,96053.88
2023-05-21T21:48:16.586Z,96050.78
2023-05-21T21:50:44.531Z,96049.84
2023-05-21T21:53:14.255Z,96038.03
2023-05-21T21:55:45.350Z,96043.66
2023-05-21T21:58:13.521Z,96051.13
2023-05-21T22:00:41.500Z,96045.78
2023-05-21T22:03:10.667Z,96042.00
2023-05-21T22:05:39.373Z,96044.50
2023-05-21T22:08:07.165Z,96052.38
2023-05-21T22:10:38.502Z,96051.34
2023-05-21T22:13:07.980Z,96056.09
2023-05-21T22:15:35.863Z,96062.19
2023-05-21T22:18:04.165Z,96056.84
2023-05-21T22:20:33.130Z,96060.09
2023-05-21T22:23:01.517Z,96064.66
2023-05-21T22:25:29.260Z,96063.84
2023-05-21T22:27:57.111Z,96066.34
2023-05-21T22:30:26.302Z,96065.06
2023-05-21T22:32:54.178Z,96075.91
2023-05-21T22:35:21.918Z,96073.16
2023-05-21T22:37:49.654Z,96077.72
2023-05-21T22:40:17.703Z,96077.94
2023-05-21T22:42:46.922Z,96087.13
2023-05-21T22:45:15.354Z,96094.72
2023-05-21T22:47:44.968Z,96097.63
2023-05-21T22:50:12.843Z,96099.72
2023-05-21T22:52:40.866Z,96101.53
2023-05-21T22:55:11.369Z,96091.50
2023-05-21T22:57:39.199Z,96107.72
2023-05-21T23:00:08.994Z,96112.41
2023-05-21T23:02:36.932Z,96113.78
2023-05-21T23:05:06.615Z,96114.59
2023-05-21T23:07:34.424Z,96112.66
2023-05-21T23:10:02.184Z,96103.22
2023-05-21T23:12:30.457Z,96115.00
2023-05-21T23:14:58.250Z,96108.63
2023-05-21T23:17:26.669Z,96107.88
2023-05-21T23:19:54.514Z,96115.44
2023-05-21T23:22:23.680Z,96115.94
2023-05-21T23:24:51.670Z,96124.06
2023-05-21T23:27:19.809Z,96110.94
2023-05-21T23:29:47.592Z,96114.25
2023-05-21T23:32:15.396Z,96115.69
2023-05-21T23:34:43.160Z,96122.22
2023-05-21T23:37:10.943Z,96126.63
2023-05-21T23:39:40.152Z,96127.69
2023-05-21T23:42:08.606Z,96125.19
2023-05-21T23:44:36.379Z,96129.03
2023-05-21T23:47:04.221Z,96111.31
2023-05-21T23:49:32.182Z,96134.78
2023-05-21T23:52:00.267Z,96136.16
2023-05-21T23:54:28.244Z,96128.84
2023-05-21T23:56:57.433Z,96133.66
2023-05-21T23:59:25.779Z,96104.41
